Time;durP1;ratioP1;P1;durP2;ratioP2;P2;SDS_P1;SDS_P2;PMS_P1;PMS_P2;Temp;Humidity;BMP_temperature;BMP_pressure;BME280_temperature;BME280_humidity;BME280_pressure;Samples;Min_cycle;Max_cycle;Signal;HPM_P1;HPM_P2
2022/07/08 00:00:25;;;;;;;4.97;2.27;;;20.90;47.10;;;;;;5000101;28;20451;-88
2022/07/08 00:02:52;;;;;;;4.53;1.70;;;20.80;47.10;;;;;;5020419;28;20504;-88
2022/07/08 00:05:19;;;;;;;3.63;1.67;;;20.90;47.80;;;;;;5019957;28;20450;-88
2022/07/08 00:07:46;;;;;;;3.60;2.10;;;20.80;47.00;;;;;;5020517;28;21011;-88
2022/07/08 00:10:13;;;;;;;5.43;1.80;;;20.80;46.60;;;;;;5019539;28;20446;-87
2022/07/08 00:12:41;;;;;;;3.60;1.70;;;20.90;46.80;;;;;;5008386;28;20461;-88
2022/07/08 00:15:10;;;;;;;4.77;1.87;;;20.90;46.40;;;;;;5002094;28;20965;-88
2022/07/08 00:17:38;;;;;;;2.80;1.63;;;21.00;46.20;;;;;;5014668;28;20478;-88
2022/07/08 00:20:07;;;;;;;5.50;2.13;;;21.00;46.10;;;;;;5021104;28;20507;-87
2022/07/08 00:22:34;;;;;;;3.10;1.73;;;21.00;45.90;;;;;;5011585;28;20467;-89
2022/07/08 00:25:01;;;;;;;3.90;1.70;;;21.10;45.80;;;;;;5023343;28;20458;-89
2022/07/08 00:27:28;;;;;;;9.50;1.77;;;21.10;45.60;;;;;;5008104;28;20503;-89
2022/07/08 00:29:55;;;;;;;5.27;1.90;;;21.10;45.60;;;;;;4998620;28;20442;-88
2022/07/08 00:32:22;;;;;;;8.93;2.20;;;21.00;45.50;;;;;;5021565;27;20447;-87
2022/07/08 00:34:51;;;;;;;3.63;1.67;;;21.00;45.70;;;;;;5012253;28;20454;-87
2022/07/08 00:37:18;;;;;;;4.17;1.70;;;20.90;45.40;;;;;;5006888;28;20517;-87
2022/07/08 00:39:45;;;;;;;1.73;1.50;;;20.90;45.70;;;;;;5023699;28;20514;-87
2022/07/08 00:42:12;;;;;;;3.83;2.00;;;20.80;45.40;;;;;;4994545;28;20462;-88
2022/07/08 00:44:39;;;;;;;2.00;1.40;;;20.80;45.40;;;;;;5011512;28;20441;-89
2022/07/08 00:47:06;;;;;;;3.30;1.73;;;20.80;45.40;;;;;;4986589;28;20468;-87
2022/07/08 00:49:34;;;;;;;3.60;1.83;;;20.80;45.00;;;;;;5008068;28;20992;-88
2022/07/08 00:52:02;;;;;;;7.00;1.67;;;20.80;45.00;;;;;;5027778;27;20442;-88
2022/07/08 00:54:29;;;;;;;3.17;1.83;;;20.80;44.90;;;;;;5023699;28;20451;-88
2022/07/08 00:56:57;;;;;;;4.93;2.60;;;20.80;44.90;;;;;;5013734;28;20478;-88
2022/07/08 00:59:24;;;;;;;4.50;1.80;;;20.80;45.40;;;;;;5022370;27;20457;-88
2022/07/08 01:01:51;;;;;;;4.40;1.97;;;20.90;45.50;;;;;;5025272;27;20449;-88
2022/07/08 01:04:19;;;;;;;2.10;1.90;;;20.80;45.60;;;;;;5007086;28;20987;-87
2022/07/08 01:06:46;;;;;;;6.00;2.50;;;20.80;45.80;;;;;;5007096;28;20459;-87
2022/07/08 01:09:15;;;;;;;6.30;1.80;;;20.60;46.30;;;;;;5030444;27;20452;-87
2022/07/08 01:11:45;;;;;;;5.03;1.77;;;20.70;46.50;;;;;;4991250;28;20486;-88
2022/07/08 01:14:12;;;;;;;3.57;1.70;;;20.70;46.60;;;;;;5023726;28;20715;-87
2022/07/08 01:16:39;;;;;;;2.40;2.03;;;20.80;46.50;;;;;;5014038;28;21280;-88
2022/07/08 01:19:06;;;;;;;4.10;1.80;;;20.80;46.20;;;;;;5027106;27;20462;-89
2022/07/08 01:21:34;;;;;;;9.03;2.23;;;20.80;46.40;;;;;;5028812;27;20453;-88
2022/07/08 01:24:01;;;;;;;3.23;2.70;;;20.50;46.90;;;;;;5010610;28;20457;-90
2022/07/08 01:26:30;;;;;;;4.57;2.90;;;20.60;47.00;;;;;;4988202;28;21184;-89
2022/07/08 01:28:57;;;;;;;2.23;1.60;;;20.60;46.90;;;;;;4988283;28;20553;-89
2022/07/08 01:31:24;;;;;;;4.50;2.07;;;20.70;46.80;;;;;;5024442;28;20461;-88
2022/07/08 01:33:51;;;;;;;3.83;2.40;;;20.60;45.90;;;;;;5042868;27;20446;-87
2022/07/08 01:36:18;;;;;;;5.80;1.90;;;20.50;46.60;;;;;;5023336;28;20481;-88
2022/07/08 01:38:47;;;;;;;5.60;2.60;;;20.60;46.30;;;;;;5025187;27;20463;-87
2022/07/08 01:41:14;;;;;;;3.83;1.50;;;20.60;46.40;;;;;;5005983;28;20453;-87
2022/07/08 01:43:41;;;;;;;4.40;2.17;;;20.70;46.20;;;;;;5025036;27;20453;-90
2022/07/08 01:46:08;;;;;;;3.17;1.60;;;20.60;46.40;;;;;;5001211;27;20477;-88
2022/07/08 01:48:35;;;;;;;2.00;1.80;;;20.60;46.60;;;;;;5025349;27;20450;-89
2022/07/08 01:51:01;;;;;;;2.43;1.70;;;20.60;46.60;;;;;;4990903;28;20441;-89
2022/07/08 01:53:28;;;;;;;5.93;1.73;;;20.50;46.80;;;;;;5026679;27;21036;-88
2022/07/08 01:55:57;;;;;;;3.53;1.60;;;20.50;46.70;;;;;;5024951;28;20442;-90
2022/07/08 01:58:24;;;;;;;4.87;1.93;;;20.50;46.70;;;;;;5023606;27;20474;-88
2022/07/08 02:00:51;;;;;;;5.37;1.80;;;20.50;46.60;;;;;;5019732;28;20446;-87
2022/07/08 02:03:18;;;;;;;5.77;1.80;;;20.50;46.80;;;;;;5023771;28;20455;-88
2022/07/08 02:05:46;;;;;;;4.47;2.10;;;20.40;46.80;;;;;;5002871;27;20443;-88
2022/07/08 02:08:13;;;;;;;5.90;1.63;;;20.40;46.90;;;;;;5009251;28;20448;-88
2022/07/08 02:13:34;;;;;;;3.00;2.00;;;20.50;47.10;;;;;;4977665;28;21068;-88
2022/07/08 02:16:01;;;;;;;2.10;1.90;;;20.60;46.90;;;;;;5021973;28;20469;-88
2022/07/08 02:18:28;;;;;;;4.23;1.80;;;20.50;47.20;;;;;;5027170;27;20479;-87
2022/07/08 02:20:55;;;;;;;2.80;1.43;;;20.50;46.50;;;;;;5020365;28;20971;-88
2022/07/08 02:23:22;;;;;;;4.70;2.17;;;20.40;47.20;;;;;;5006902;28;20502;-88
2022/07/08 02:25:48;;;;;;;3.13;1.97;;;20.30;47.00;;;;;;5026758;27;20454;-88
2022/07/08 02:28:15;;;;;;;2.60;1.90;;;20.50;47.60;;;;;;5028737;27;20545;-87
2022/07/08 02:30:44;;;;;;;5.30;2.17;;;20.50;47.10;;;;;;5025637;27;20446;-87
2022/07/08 02:33:11;;;;;;;3.43;1.80;;;20.50;46.70;;;;;;5023113;28;20457;-87
2022/07/08 02:35:38;;;;;;;6.40;1.80;;;20.50;47.00;;;;;;4997199;28;20961;-88
2022/07/08 02:38:05;;;;;;;5.20;1.60;;;20.50;46.90;;;;;;5021805;28;20483;-87
2022/07/08 02:40:32;;;;;;;5.40;2.30;;;20.30;47.20;;;;;;5017793;28;20464;-88
2022/07/08 02:42:59;;;;;;;4.80;1.73;;;20.30;47.20;;;;;;5028966;27;20489;-87
2022/07/08 02:45:26;;;;;;;8.70;4.77;;;20.20;46.80;;;;;;5021784;27;20455;-87
2022/07/08 02:47:54;;;;;;;2.77;1.87;;;20.10;47.00;;;;;;5022746;28;21060;-88
2022/07/08 02:50:21;;;;;;;5.53;2.17;;;20.20;47.40;;;;;;5020793;28;20447;-89
2022/07/08 02:52:48;;;;;;;6.10;2.00;;;20.30;47.20;;;;;;5021257;28;20465;-87
2022/07/08 02:55:15;;;;;;;3.63;1.40;;;20.40;47.10;;;;;;5035309;27;20541;-88
2022/07/08 02:57:42;;;;;;;4.07;1.80;;;20.40;47.10;;;;;;5020669;28;20531;-88
2022/07/08 03:00:10;;;;;;;8.27;1.80;;;20.40;46.50;;;;;;4986656;27;20509;-89
2022/07/08 03:02:37;;;;;;;3.73;1.90;;;20.40;46.80;;;;;;5020157;28;20458;-91
2022/07/08 03:05:06;;;;;;;3.57;1.80;;;20.40;46.80;;;;;;5021580;28;20451;-89
2022/07/08 03:07:33;;;;;;;4.87;1.90;;;20.50;46.70;;;;;;5019845;27;20474;-88
2022/07/08 03:10:00;;;;;;;5.20;2.33;;;20.50;47.00;;;;;;5025366;28;20511;-87
2022/07/08 03:12:27;;;;;;;4.93;2.27;;;20.50;46.60;;;;;;5018746;28;20454;-87
2022/07/08 03:14:54;;;;;;;5.90;1.97;;;20.40;46.90;;;;;;5019752;28;20454;-88
2022/07/08 03:17:21;;;;;;;6.27;2.17;;;20.00;47.50;;;;;;5003216;28;20467;-87
2022/07/08 03:19:47;;;;;;;3.97;1.80;;;20.10;47.90;;;;;;5022301;27;20520;-89
2022/07/08 03:22:16;;;;;;;10.60;2.37;;;20.10;48.10;;;;;;5012499;27;21173;-89
2022/07/08 03:24:43;;;;;;;5.50;1.97;;;20.20;48.10;;;;;;5005560;28;20537;-89
2022/07/08 03:27:10;;;;;;;2.90;2.03;;;20.20;47.90;;;;;;5019953;28;20509;-87
2022/07/08 03:29:36;;;;;;;4.60;2.20;;;20.30;48.00;;;;;;5015602;28;20924;-88
2022/07/08 03:32:04;;;;;;;2.23;1.73;;;20.40;47.60;;;;;;5007992;28;20949;-90
2022/07/08 03:34:31;;;;;;;5.73;2.00;;;20.50;47.40;;;;;;5008474;28;20446;-88
2022/07/08 03:36:58;;;;;;;7.80;2.00;;;20.50;47.60;;;;;;5017540;28;20815;-88
2022/07/08 03:39:26;;;;;;;4.40;1.93;;;20.50;47.10;;;;;;5014039;28;20466;-89
2022/07/08 03:41:52;;;;;;;2.40;2.20;;;20.50;47.00;;;;;;5014266;28;20448;-91
2022/07/08 03:44:19;;;;;;;7.33;2.03;;;20.50;46.90;;;;;;5009735;28;20860;-88
2022/07/08 03:46:46;;;;;;;3.73;1.80;;;20.40;46.80;;;;;;5012872;28;20822;-88
2022/07/08 03:49:13;;;;;;;6.50;2.10;;;20.30;46.80;;;;;;5023547;28;20442;-88
2022/07/08 03:51:40;;;;;;;8.33;2.00;;;20.40;47.20;;;;;;5033063;27;20468;-88
2022/07/08 03:54:07;;;;;;;5.30;2.17;;;20.40;47.30;;;;;;5013243;28;20464;-89
2022/07/08 03:56:35;;;;;;;5.57;2.50;;;20.50;47.50;;;;;;5028518;27;21007;-88
2022/07/08 03:59:02;;;;;;;4.00;2.07;;;20.60;47.50;;;;;;5020702;28;20471;-86
2022/07/08 04:01:29;;;;;;;5.77;1.90;;;20.60;47.30;;;;;;5018631;28;20852;-86
2022/07/08 04:03:56;;;;;;;6.97;2.10;;;20.50;47.60;;;;;;5023135;28;20583;-88
2022/07/08 04:06:23;;;;;;;4.63;1.90;;;20.50;47.70;;;;;;5018778;28;20469;-86
2022/07/08 04:08:50;;;;;;;4.10;1.63;;;20.60;47.30;;;;;;5018524;28;20447;-86
2022/07/08 04:11:17;;;;;;;3.90;1.67;;;20.60;47.50;;;;;;5016996;28;20529;-87
2022/07/08 04:13:45;;;;;;;9.80;2.17;;;20.60;47.30;;;;;;5020896;28;20475;-86
2022/07/08 04:16:13;;;;;;;4.93;2.10;;;20.50;47.10;;;;;;5009249;28;20601;-89
2022/07/08 04:18:41;;;;;;;4.50;1.83;;;20.40;47.40;;;;;;5019934;28;20502;-87
2022/07/08 04:21:09;;;;;;;5.23;1.93;;;20.40;47.30;;;;;;4987169;28;20451;-87
2022/07/08 04:23:37;;;;;;;5.67;2.47;;;20.40;47.80;;;;;;5020777;28;20450;-88
2022/07/08 04:26:04;;;;;;;7.40;1.93;;;20.40;48.00;;;;;;5021081;28;20474;-86
2022/07/08 04:28:31;;;;;;;6.97;2.53;;;20.50;47.50;;;;;;4984542;28;20453;-86
2022/07/08 04:31:00;;;;;;;5.00;2.00;;;20.50;47.50;;;;;;5002772;28;20458;-86
2022/07/08 04:33:27;;;;;;;3.17;1.83;;;20.40;47.60;;;;;;4993835;28;20458;-87
2022/07/08 04:35:54;;;;;;;5.17;2.00;;;20.50;47.30;;;;;;5019848;28;20462;-86
2022/07/08 04:38:21;;;;;;;3.60;1.97;;;20.60;47.20;;;;;;5002113;28;20470;-86
2022/07/08 04:40:47;;;;;;;3.73;2.07;;;20.70;47.60;;;;;;5020440;28;20450;-87
2022/07/08 04:43:14;;;;;;;3.50;2.00;;;20.80;47.50;;;;;;5020996;28;20447;-86
2022/07/08 04:45:41;;;;;;;3.97;1.93;;;20.80;47.20;;;;;;5020149;28;20818;-86
2022/07/08 04:48:09;;;;;;;4.23;2.03;;;20.80;46.70;;;;;;5017160;28;20477;-87
2022/07/08 04:50:36;;;;;;;5.47;2.40;;;20.70;46.60;;;;;;5018888;28;20457;-88
2022/07/08 04:53:03;;;;;;;4.50;2.30;;;20.70;47.30;;;;;;5020461;28;20451;-86
2022/07/08 04:55:31;;;;;;;3.10;1.50;;;20.70;47.20;;;;;;5009375;28;20462;-87
2022/07/08 04:58:00;;;;;;;4.70;1.43;;;20.70;46.30;;;;;;5018229;28;20489;-87
2022/07/08 05:00:27;;;;;;;2.73;1.60;;;20.70;45.90;;;;;;5013808;28;20513;-87
2022/07/08 05:02:54;;;;;;;2.83;1.60;;;20.80;45.60;;;;;;5019529;28;20465;-86
2022/07/08 05:05:22;;;;;;;5.23;1.30;;;20.70;44.90;;;;;;5018859;28;20817;-87
2022/07/08 05:07:49;;;;;;;3.13;1.93;;;20.50;44.90;;;;;;5002770;28;20455;-86
2022/07/08 05:10:17;;;;;;;6.33;1.67;;;20.30;44.80;;;;;;5023272;28;20450;-88
2022/07/08 05:12:44;;;;;;;4.23;1.80;;;20.20;44.70;;;;;;5019733;28;20441;-85
2022/07/08 05:15:12;;;;;;;3.30;1.90;;;20.20;45.80;;;;;;5022221;27;20723;-85
2022/07/08 05:17:39;;;;;;;3.07;1.70;;;20.00;45.90;;;;;;5023158;28;20485;-85
2022/07/08 05:20:08;;;;;;;5.27;2.07;;;20.10;46.30;;;;;;5024123;27;20485;-87
2022/07/08 05:22:37;;;;;;;2.90;1.77;;;20.20;46.10;;;;;;5006148;27;20458;-88
2022/07/08 05:25:04;;;;;;;4.10;1.70;;;20.30;46.60;;;;;;5022047;27;20531;-88
2022/07/08 05:27:31;;;;;;;3.13;1.50;;;20.20;46.30;;;;;;5018984;28;20720;-86
2022/07/08 05:29:58;;;;;;;11.23;2.10;;;20.00;44.80;;;;;;5022334;28;20450;-87
2022/07/08 05:32:25;;;;;;;4.20;1.50;;;20.00;45.20;;;;;;5026910;27;20481;-85
2022/07/08 05:34:52;;;;;;;6.43;1.77;;;19.90;45.40;;;;;;5023509;27;20763;-86
2022/07/08 05:37:19;;;;;;;2.20;1.73;;;19.80;46.30;;;;;;5026130;27;20481;-85
2022/07/08 05:39:47;;;;;;;2.90;1.40;;;19.60;46.40;;;;;;5022579;27;21325;-85
2022/07/08 05:42:14;;;;;;;5.50;1.70;;;19.70;46.00;;;;;;5022827;27;20545;-85
2022/07/08 05:44:41;;;;;;;2.70;1.63;;;19.80;45.80;;;;;;5023753;27;20466;-88
2022/07/08 05:47:08;;;;;;;5.90;1.80;;;19.70;44.90;;;;;;5022442;27;20481;-85
2022/07/08 05:49:36;;;;;;;3.37;1.73;;;19.80;45.20;;;;;;5025178;27;20451;-86
2022/07/08 05:52:04;;;;;;;2.77;1.97;;;20.00;44.90;;;;;;5018378;27;20462;-86
2022/07/08 05:54:32;;;;;;;5.30;1.50;;;20.20;45.40;;;;;;5024313;27;20946;-86
2022/07/08 05:57:00;;;;;;;2.90;1.20;;;20.20;45.10;;;;;;5024333;28;20470;-85
2022/07/08 05:59:27;;;;;;;2.23;1.50;;;20.50;45.40;;;;;;5021686;28;20477;-86
2022/07/08 06:01:55;;;;;;;2.70;1.70;;;20.30;44.40;;;;;;5022441;28;21039;-87
2022/07/08 06:04:22;;;;;;;1.63;1.43;;;20.30;45.20;;;;;;5021189;28;20463;-86
2022/07/08 06:06:50;;;;;;;6.57;1.80;;;20.30;44.10;;;;;;5022487;28;20485;-86
2022/07/08 06:09:16;;;;;;;5.13;1.63;;;20.60;44.30;;;;;;5020394;28;20442;-87
2022/07/08 06:11:43;;;;;;;4.80;1.77;;;20.60;43.90;;;;;;5020990;28;21024;-86
2022/07/08 06:14:11;;;;;;;2.47;1.50;;;20.40;43.60;;;;;;5022651;27;20459;-85
2022/07/08 06:16:38;;;;;;;2.17;1.63;;;20.70;45.10;;;;;;5018877;28;20515;-85
2022/07/08 06:19:05;;;;;;;3.83;1.50;;;21.00;44.00;;;;;;5025111;27;20487;-85
2022/07/08 06:21:32;;;;;;;2.10;1.40;;;21.30;42.90;;;;;;5022194;27;20968;-88
2022/07/08 06:24:00;;;;;;;3.00;1.57;;;21.40;42.80;;;;;;5020723;28;20458;-86
2022/07/08 06:26:27;;;;;;;3.27;2.00;;;21.30;42.00;;;;;;5022750;28;21041;-87
2022/07/08 06:28:54;;;;;;;3.27;1.43;;;21.40;43.10;;;;;;5032747;27;20434;-86
2022/07/08 06:31:22;;;;;;;2.50;1.70;;;21.60;42.30;;;;;;5023783;28;20450;-85
2022/07/08 06:33:56;;;;;;;1.40;1.30;;;21.70;42.60;;;;;;5018788;28;20447;-87
2022/07/08 06:36:23;;;;;;;3.83;1.80;;;21.70;41.90;;;;;;5020377;27;20481;-85
2022/07/08 06:38:50;;;;;;;4.40;1.70;;;21.70;41.60;;;;;;5017507;28;20458;-85
2022/07/08 06:41:18;;;;;;;1.97;1.40;;;21.60;41.90;;;;;;5003415;28;20866;-88
2022/07/08 06:43:45;;;;;;;9.13;1.87;;;21.60;42.10;;;;;;5002641;28;20450;-86
2022/07/08 06:46:12;;;;;;;8.13;1.70;;;21.70;41.10;;;;;;5018763;28;21136;-87
2022/07/08 06:48:40;;;;;;;2.97;1.50;;;21.60;41.40;;;;;;5021050;28;20466;-85
2022/07/08 06:51:07;;;;;;;6.27;1.90;;;21.70;41.80;;;;;;5018191;28;20450;-85
2022/07/08 06:56:15;;;;;;;2.40;1.20;;;21.50;42.20;;;;;;5022198;27;20625;-86
2022/07/08 06:58:42;;;;;;;9.83;1.70;;;21.50;42.60;;;;;;5019879;28;20458;-87
2022/07/08 07:01:10;;;;;;;2.63;1.30;;;21.50;42.00;;;;;;5020117;28;20503;-85
2022/07/08 07:03:37;;;;;;;2.73;1.47;;;21.70;41.70;;;;;;5022316;28;20454;-85
2022/07/08 07:06:07;;;;;;;2.90;1.50;;;22.10;41.90;;;;;;5019521;28;20461;-85
2022/07/08 07:08:34;;;;;;;3.47;1.60;;;22.20;41.00;;;;;;5018080;28;20559;-85
2022/07/08 07:11:01;;;;;;;5.23;1.50;;;22.20;40.20;;;;;;5001229;28;20455;-87
2022/07/08 07:13:27;;;;;;;3.50;1.50;;;22.20;39.90;;;;;;5024019;27;20469;-86
2022/07/08 07:15:54;;;;;;;3.00;1.50;;;22.30;40.80;;;;;;5002895;28;20456;-88
2022/07/08 07:18:21;;;;;;;2.60;1.37;;;22.40;40.80;;;;;;5017892;28;20541;-86
2022/07/08 07:20:48;;;;;;;3.97;1.50;;;22.30;40.20;;;;;;5023076;27;20466;-85
2022/07/08 07:23:18;;;;;;;2.00;1.50;;;22.50;40.30;;;;;;5024240;27;20529;-85
2022/07/08 07:25:45;;;;;;;3.13;1.57;;;22.30;40.40;;;;;;5024033;28;20461;-86
2022/07/08 07:28:11;;;;;;;2.57;1.43;;;22.20;39.90;;;;;;5018249;28;20489;-87
2022/07/08 07:30:38;;;;;;;5.73;1.50;;;22.30;41.00;;;;;;5008544;28;20450;-86
2022/07/08 07:33:05;;;;;;;3.03;1.37;;;22.40;41.40;;;;;;5021950;27;20838;-86
2022/07/08 07:35:32;;;;;;;7.07;1.40;;;22.40;41.30;;;;;;5005954;27;20458;-85
2022/07/08 07:37:59;;;;;;;2.20;1.53;;;22.60;41.00;;;;;;5011580;28;20478;-86
2022/07/08 07:40:28;;;;;;;2.70;1.40;;;22.60;39.90;;;;;;5004494;28;21076;-86
2022/07/08 07:42:55;;;;;;;4.00;1.23;;;22.50;40.90;;;;;;4994959;28;20457;-86
2022/07/08 07:45:22;;;;;;;4.83;1.40;;;22.40;40.20;;;;;;5001564;28;20450;-87
2022/07/08 07:47:49;;;;;;;6.10;1.90;;;22.40;40.80;;;;;;5019491;28;20511;-88
2022/07/08 07:50:16;;;;;;;2.00;1.23;;;22.50;40.70;;;;;;4991088;28;20843;-88
2022/07/08 07:52:43;;;;;;;3.40;1.40;;;22.40;40.50;;;;;;5084814;27;20906;-87
2022/07/08 07:55:10;;;;;;;2.53;1.50;;;22.30;40.40;;;;;;5020165;28;21033;-87
2022/07/08 07:57:39;;;;;;;2.80;1.43;;;22.00;39.90;;;;;;5021928;28;20687;-90
2022/07/08 08:00:09;;;;;;;2.03;1.33;;;22.00;40.00;;;;;;5017313;28;20483;-86
2022/07/08 08:02:39;;;;;;;4.70;1.70;;;22.10;40.20;;;;;;5018631;28;20457;-86
2022/07/08 08:05:06;;;;;;;3.13;1.60;;;22.20;40.60;;;;;;5020444;28;20503;-86
2022/07/08 08:07:33;;;;;;;4.50;1.40;;;22.50;40.70;;;;;;5001768;28;20473;-86
2022/07/08 08:10:01;;;;;;;2.97;1.10;;;22.60;39.90;;;;;;5000428;28;21022;-86
2022/07/08 08:12:28;;;;;;;1.63;1.33;;;22.70;39.20;;;;;;5019172;28;20504;-86
2022/07/08 08:14:57;;;;;;;1.47;1.20;;;22.90;38.80;;;;;;4994436;28;21029;-86
2022/07/08 08:17:24;;;;;;;6.53;1.50;;;22.90;38.10;;;;;;5019361;28;21124;-87
2022/07/08 08:19:51;;;;;;;3.00;1.17;;;22.90;38.30;;;;;;5023769;28;20477;-87
2022/07/08 08:22:18;;;;;;;1.60;1.20;;;22.90;38.60;;;;;;5004411;28;20470;-86
2022/07/08 08:24:44;;;;;;;4.70;1.30;;;23.00;38.50;;;;;;5017068;28;20450;-87
2022/07/08 08:27:12;;;;;;;8.33;1.50;;;23.20;38.30;;;;;;5020658;28;20474;-88
2022/07/08 08:29:39;;;;;;;3.33;1.10;;;23.30;37.50;;;;;;5023060;28;21279;-87
2022/07/08 08:32:08;;;;;;;2.97;1.37;;;23.30;37.60;;;;;;5017909;28;20458;-90
2022/07/08 08:34:35;;;;;;;3.50;2.27;;;23.40;37.70;;;;;;5005777;28;20448;-86
2022/07/08 08:37:01;;;;;;;1.37;1.17;;;23.30;37.90;;;;;;5018365;28;21212;-87
2022/07/08 08:39:28;;;;;;;3.60;1.43;;;23.20;37.00;;;;;;5001080;28;20462;-87
2022/07/08 08:41:55;;;;;;;2.73;1.53;;;23.00;37.40;;;;;;5021891;28;20450;-87
2022/07/08 08:44:22;;;;;;;2.90;1.20;;;22.70;37.70;;;;;;5020234;28;20449;-86
2022/07/08 08:46:53;;;;;;;5.00;1.70;;;22.60;38.30;;;;;;5022257;28;20569;-87
2022/07/08 08:49:21;;;;;;;4.50;1.40;;;22.70;38.60;;;;;;5025007;28;20450;-89
2022/07/08 08:51:51;;;;;;;3.13;1.60;;;22.90;39.00;;;;;;5025204;28;20467;-87
2022/07/08 08:54:19;;;;;;;3.60;1.43;;;22.90;39.10;;;;;;4997361;28;20447;-88
2022/07/08 08:56:47;;;;;;;7.93;1.77;;;22.80;39.90;;;;;;5023139;28;20704;-86
2022/07/08 08:59:15;;;;;;;3.13;1.50;;;22.70;40.00;;;;;;5021373;28;20465;-87
2022/07/08 09:01:42;;;;;;;8.53;2.30;;;22.50;40.50;;;;;;5021676;28;20482;-87
2022/07/08 09:04:11;;;;;;;6.73;1.80;;;22.50;40.40;;;;;;5092449;27;20825;-87
2022/07/08 09:06:40;;;;;;;4.83;1.67;;;22.00;40.10;;;;;;5011518;28;20479;-89
2022/07/08 09:09:07;;;;;;;2.80;1.80;;;22.10;41.10;;;;;;5021749;27;20435;-88
2022/07/08 09:11:35;;;;;;;2.40;1.37;;;22.50;41.00;;;;;;5024343;28;20556;-87
2022/07/08 09:14:16;;;;;;;2.53;1.20;;;22.50;40.10;;;;;;4986650;28;20465;-85
2022/07/08 09:17:12;;;;;;;4.07;1.30;;;22.60;40.30;;;;;;5018584;27;21184;-89
2022/07/08 09:19:42;;;;;;;4.17;1.90;;;22.50;40.10;;;;;;5023284;28;20486;-88
2022/07/08 09:22:10;;;;;;;2.80;1.50;;;22.60;40.10;;;;;;5024203;27;20593;-88
2022/07/08 09:24:38;;;;;;;3.43;1.47;;;22.70;39.70;;;;;;5021163;28;20457;-86
2022/07/08 09:27:07;;;;;;;4.70;1.53;;;22.90;40.00;;;;;;5023619;28;20480;-90
2022/07/08 09:29:35;;;;;;;3.73;1.60;;;22.90;39.00;;;;;;5006756;28;20461;-87
2022/07/08 09:32:14;;;;;;;4.20;1.40;;;22.90;39.20;;;;;;5021937;28;20454;-86
2022/07/08 09:34:43;;;;;;;3.83;1.37;;;22.90;39.80;;;;;;5005262;28;20937;-87
2022/07/08 09:37:15;;;;;;;3.20;2.00;;;22.80;40.00;;;;;;5020426;28;20481;-88
2022/07/08 09:39:43;;;;;;;3.00;1.50;;;22.80;40.00;;;;;;5014511;27;20443;-89
2022/07/08 09:42:11;;;;;;;3.40;1.60;;;22.80;39.60;;;;;;4993971;28;20535;-87
2022/07/08 09:44:38;;;;;;;2.93;1.37;;;22.80;39.40;;;;;;5004993;28;20490;-87
2022/07/08 09:47:10;;;;;;;7.70;1.40;;;22.90;39.40;;;;;;5021707;28;20478;-87
2022/07/08 09:49:41;;;;;;;2.20;1.53;;;23.00;39.70;;;;;;4993524;28;20446;-86
2022/07/08 09:52:08;;;;;;;1.80;1.20;;;22.80;39.50;;;;;;4999646;28;20463;-88
2022/07/08 09:54:35;;;;;;;1.67;1.40;;;23.10;39.30;;;;;;5016398;27;20484;-88
2022/07/08 09:57:04;;;;;;;2.33;1.20;;;23.50;38.60;;;;;;5004628;28;20526;-89
2022/07/08 09:59:33;;;;;;;2.27;1.60;;;23.60;37.40;;;;;;4982376;28;20978;-86
2022/07/08 10:02:00;;;;;;;5.20;1.53;;;23.50;37.80;;;;;;5021351;28;20527;-87
2022/07/08 10:04:28;;;;;;;2.37;1.93;;;23.30;38.90;;;;;;4991104;28;20457;-87
2022/07/08 10:06:58;;;;;;;4.00;1.77;;;23.30;39.60;;;;;;5014760;27;20485;-87
2022/07/08 10:09:26;;;;;;;3.43;1.60;;;23.40;38.70;;;;;;5017937;28;20535;-87
2022/07/08 10:11:54;;;;;;;1.30;1.20;;;23.60;38.50;;;;;;5015355;27;20906;-88
2022/07/08 10:14:21;;;;;;;5.03;1.20;;;23.40;37.50;;;;;;5004995;28;20460;-87
2022/07/08 10:16:49;;;;;;;6.07;1.80;;;23.60;38.10;;;;;;5019430;27;20561;-89
2022/07/08 10:19:21;;;;;;;2.60;1.20;;;23.60;38.40;;;;;;5009807;27;20450;-90
2022/07/08 10:21:53;;;;;;;4.23;1.40;;;23.60;38.10;;;;;;4993047;28;20980;-88
2022/07/08 10:24:25;;;;;;;4.60;1.57;;;23.60;38.00;;;;;;5021336;28;20446;-89
2022/07/08 10:26:52;;;;;;;2.53;1.43;;;23.70;37.40;;;;;;5005446;27;20554;-86
2022/07/08 10:29:29;;;;;;;7.97;1.90;;;23.50;38.00;;;;;;5021703;28;20462;-88
2022/07/08 10:31:58;;;;;;;4.20;1.40;;;23.30;38.10;;;;;;5024207;27;20569;-89
2022/07/08 10:34:31;;;;;;;3.53;1.90;;;23.30;38.30;;;;;;5026745;27;20454;-87
2022/07/08 10:36:58;;;;;;;3.57;1.60;;;23.70;39.00;;;;;;5007168;28;20466;-88
2022/07/08 10:39:27;;;;;;;5.53;1.70;;;24.00;38.40;;;;;;5010769;28;20442;-89
2022/07/08 10:41:59;;;;;;;1.97;1.40;;;24.00;37.50;;;;;;5007677;28;20477;-87
2022/07/08 10:44:52;;;;;;;4.33;1.33;;;24.10;37.50;;;;;;5025777;27;20960;-89
2022/07/08 10:47:28;;;;;;;2.93;1.50;;;24.10;37.80;;;;;;5008976;28;21324;-88
2022/07/08 10:50:04;;;;;;;6.23;1.70;;;24.20;38.10;;;;;;5021148;28;20450;-88
2022/07/08 10:52:33;;;;;;;3.20;1.60;;;24.20;37.80;;;;;;5022618;27;21013;-87
2022/07/08 10:55:13;;;;;;;3.30;1.80;;;24.20;37.70;;;;;;5005153;28;20470;-89
2022/07/08 10:57:54;;;;;;;3.00;1.60;;;24.30;37.20;;;;;;5030039;28;20461;-87
2022/07/08 11:00:22;;;;;;;2.50;1.40;;;24.40;37.60;;;;;;4997309;28;20474;-85
2022/07/08 11:02:49;;;;;;;1.87;1.40;;;24.40;36.90;;;;;;5030359;27;20459;-87
2022/07/08 11:05:37;;;;;;;1.50;1.30;;;24.20;37.60;;;;;;5043983;27;20463;-86
2022/07/08 11:08:24;;;;;;;3.83;1.63;;;24.00;37.90;;;;;;5001551;28;20849;-86
2022/07/08 11:10:55;;;;;;;3.17;1.57;;;24.40;39.00;;;;;;5023300;27;20964;-87
2022/07/08 11:13:23;;;;;;;2.40;1.50;;;24.80;37.30;;;;;;5033217;27;20473;-86
2022/07/08 11:15:50;;;;;;;5.67;1.50;;;25.10;37.10;;;;;;5001327;28;20578;-87
2022/07/08 11:18:22;;;;;;;1.50;1.40;;;25.20;35.50;;;;;;4999075;28;20504;-87
2022/07/08 11:20:50;;;;;;;3.63;1.50;;;25.20;36.60;;;;;;5076979;28;21027;-87
2022/07/08 11:23:20;;;;;;;1.40;1.20;;;25.50;35.60;;;;;;5017130;27;20561;-87
2022/07/08 11:25:48;;;;;;;3.60;1.53;;;25.80;34.00;;;;;;5002915;27;20545;-86
2022/07/08 11:28:21;;;;;;;2.07;1.87;;;25.70;34.40;;;;;;4996969;28;20475;-88
2022/07/08 11:30:48;;;;;;;1.70;1.50;;;26.20;34.60;;;;;;5017878;28;21122;-88
2022/07/08 11:33:15;;;;;;;2.63;1.63;;;26.30;34.50;;;;;;5016588;28;20454;-87
2022/07/08 11:35:42;;;;;;;6.77;1.60;;;26.20;34.00;;;;;;5016678;28;21056;-86
2022/07/08 11:38:09;;;;;;;3.00;1.80;;;26.20;33.60;;;;;;5020441;27;20482;-88
2022/07/08 11:40:42;;;;;;;2.27;1.60;;;26.10;33.60;;;;;;5016064;28;20478;-91
2022/07/08 11:43:14;;;;;;;5.57;1.57;;;26.00;33.80;;;;;;5017439;28;21107;-88
2022/07/08 11:45:43;;;;;;;1.70;1.43;;;26.20;33.40;;;;;;5011307;28;20856;-86
2022/07/08 11:48:10;;;;;;;2.47;1.60;;;26.30;33.60;;;;;;5015884;28;20470;-86
2022/07/08 11:50:39;;;;;;;4.90;1.40;;;26.40;32.80;;;;;;5014943;28;20443;-88
2022/07/08 11:53:06;;;;;;;4.47;1.60;;;26.50;33.90;;;;;;4999787;28;20547;-86
2022/07/08 11:55:44;;;;;;;4.30;1.60;;;26.70;32.60;;;;;;5017060;28;20477;-86
2022/07/08 11:58:11;;;;;;;1.40;1.23;;;27.00;32.40;;;;;;4996779;28;20566;-90
2022/07/08 12:00:38;;;;;;;2.60;1.57;;;27.00;32.50;;;;;;5018688;28;20831;-87
2022/07/08 12:03:06;;;;;;;2.00;1.40;;;27.00;31.60;;;;;;4988168;28;20446;-86
2022/07/08 12:05:37;;;;;;;2.60;1.50;;;26.60;32.20;;;;;;5017497;27;20457;-89
2022/07/08 12:08:10;;;;;;;3.27;1.80;;;26.70;32.30;;;;;;5016899;27;20516;-87
2022/07/08 12:10:37;;;;;;;1.40;1.30;;;26.70;33.20;;;;;;5015787;28;20454;-86
2022/07/08 12:13:04;;;;;;;7.07;1.50;;;27.00;32.70;;;;;;5019930;28;20446;-86
2022/07/08 12:15:35;;;;;;;2.10;1.67;;;27.00;31.90;;;;;;5015465;28;20451;-86
2022/07/08 12:18:03;;;;;;;2.13;1.53;;;27.20;31.30;;;;;;5015949;28;20551;-88
2022/07/08 12:20:36;;;;;;;2.67;1.43;;;27.40;31.60;;;;;;5017358;28;20489;-86
2022/07/08 12:23:04;;;;;;;2.43;1.47;;;27.40;31.20;;;;;;5020290;27;20824;-86
2022/07/08 12:25:47;;;;;;;3.57;1.40;;;27.50;30.20;;;;;;5005947;27;20474;-85
2022/07/08 12:28:14;;;;;;;3.73;1.30;;;27.40;30.40;;;;;;5023004;27;20542;-88
2022/07/08 12:30:41;;;;;;;3.33;1.40;;;27.40;30.90;;;;;;5020371;27;20458;-86
2022/07/08 12:33:08;;;;;;;4.83;1.63;;;27.50;30.80;;;;;;5022513;27;20450;-86
2022/07/08 12:35:37;;;;;;;2.13;1.53;;;27.60;30.30;;;;;;5022403;27;21075;-87
2022/07/08 12:38:05;;;;;;;3.33;1.20;;;27.60;30.70;;;;;;5023080;27;21094;-86
2022/07/08 12:40:38;;;;;;;1.97;1.50;;;27.40;30.00;;;;;;5022924;27;21290;-88
2022/07/08 12:43:06;;;;;;;2.63;1.30;;;27.50;31.20;;;;;;5001379;27;20450;-87
2022/07/08 12:45:33;;;;;;;3.17;1.40;;;27.00;30.00;;;;;;5013792;27;20901;-88
2022/07/08 12:48:02;;;;;;;3.00;1.60;;;26.80;31.10;;;;;;5026704;27;20474;-86
2022/07/08 12:50:31;;;;;;;2.07;1.60;;;26.90;32.40;;;;;;5023622;27;20481;-86
2022/07/08 12:53:00;;;;;;;1.70;1.40;;;26.80;31.90;;;;;;5021817;27;20858;-87
2022/07/08 12:55:27;;;;;;;1.73;1.63;;;27.10;31.20;;;;;;5009285;28;20753;-87
2022/07/08 12:57:54;;;;;;;3.90;1.90;;;27.30;30.60;;;;;;5021753;27;20922;-86